sensor_id;sensor_type;location;lat;lon;timestamp;P1;durP1;ratioP1;P2;durP2;ratioP2
17794;SDS011;9021;50.882;4.326;2022-09-09T00:01:00;2.75;;;1.15;;
17794;SDS011;9021;50.882;4.326;2022-09-09T00:03:31;3.83;;;1.30;;
17794;SDS011;9021;50.882;4.326;2022-09-09T00:06:22;6.53;;;1.10;;
17794;SDS011;9021;50.882;4.326;2022-09-09T00:14:33;3.08;;;1.02;;
17794;SDS011;9021;50.882;4.326;2022-09-09T00:17:04;5.82;;;1.38;;
17794;SDS011;9021;50.882;4.326;2022-09-09T00:19:47;3.55;;;1.25;;
17794;SDS011;9021;50.882;4.326;2022-09-09T00:22:24;4.00;;;1.23;;
17794;SDS011;9021;50.882;4.326;2022-09-09T00:24:53;4.43;;;1.02;;
17794;SDS011;9021;50.882;4.326;2022-09-09T00:32:59;5.38;;;1.20;;
17794;SDS011;9021;50.882;4.326;2022-09-09T00:35:37;3.13;;;1.10;;
17794;SDS011;9021;50.882;4.326;2022-09-09T00:38:12;4.43;;;1.30;;
17794;SDS011;9021;50.882;4.326;2022-09-09T00:43:29;5.25;;;1.10;;
17794;SDS011;9021;50.882;4.326;2022-09-09T00:46:24;5.28;;;1.70;;
17794;SDS011;9021;50.882;4.326;2022-09-09T00:51:41;2.63;;;1.00;;
17794;SDS011;9021;50.882;4.326;2022-09-09T00:57:25;3.40;;;1.08;;
17794;SDS011;9021;50.882;4.326;2022-09-09T01:05:46;3.90;;;0.93;;
17794;SDS011;9021;50.882;4.326;2022-09-09T01:14:14;2.22;;;0.77;;
17794;SDS011;9021;50.882;4.326;2022-09-09T01:16:50;3.63;;;1.25;;
17794;SDS011;9021;50.882;4.326;2022-09-09T01:19:44;3.13;;;0.90;;
17794;SDS011;9021;50.882;4.326;2022-09-09T01:25:06;4.68;;;0.98;;
17794;SDS011;9021;50.882;4.326;2022-09-09T01:27:44;5.38;;;0.93;;
17794;SDS011;9021;50.882;4.326;2022-09-09T01:30:13;3.00;;;0.80;;
17794;SDS011;9021;50.882;4.326;2022-09-09T01:35:13;4.70;;;0.88;;
17794;SDS011;9021;50.882;4.326;2022-09-09T01:37:47;3.38;;;0.77;;
17794;SDS011;9021;50.882;4.326;2022-09-09T01:40:12;3.92;;;0.68;;
17794;SDS011;9021;50.882;4.326;2022-09-09T01:42:38;3.63;;;1.00;;
17794;SDS011;9021;50.882;4.326;2022-09-09T01:45:04;8.07;;;1.10;;
17794;SDS011;9021;50.882;4.326;2022-09-09T01:47:30;6.25;;;1.40;;
17794;SDS011;9021;50.882;4.326;2022-09-09T01:49:56;4.63;;;0.98;;
17794;SDS011;9021;50.882;4.326;2022-09-09T01:52:22;5.38;;;1.20;;
17794;SDS011;9021;50.882;4.326;2022-09-09T01:54:47;3.00;;;0.95;;
17794;SDS011;9021;50.882;4.326;2022-09-09T02:02:17;6.18;;;1.20;;
17794;SDS011;9021;50.882;4.326;2022-09-09T02:04:45;4.85;;;1.10;;
17794;SDS011;9021;50.882;4.326;2022-09-09T02:10:12;4.28;;;1.13;;
17794;SDS011;9021;50.882;4.326;2022-09-09T02:12:44;9.32;;;1.63;;
17794;SDS011;9021;50.882;4.326;2022-09-09T02:15:18;6.47;;;1.23;;
17794;SDS011;9021;50.882;4.326;2022-09-09T02:17:53;7.80;;;2.00;;
17794;SDS011;9021;50.882;4.326;2022-09-09T02:20:23;6.50;;;1.20;;
17794;SDS011;9021;50.882;4.326;2022-09-09T02:22:52;6.10;;;1.48;;
17794;SDS011;9021;50.882;4.326;2022-09-09T02:25:19;7.03;;;1.40;;
17794;SDS011;9021;50.882;4.326;2022-09-09T02:27:49;6.68;;;1.35;;
17794;SDS011;9021;50.882;4.326;2022-09-09T02:30:16;5.53;;;1.40;;
17794;SDS011;9021;50.882;4.326;2022-09-09T02:32:43;6.35;;;1.25;;
17794;SDS011;9021;50.882;4.326;2022-09-09T02:35:15;10.88;;;1.88;;
17794;SDS011;9021;50.882;4.326;2022-09-09T02:37:46;8.23;;;1.55;;
17794;SDS011;9021;50.882;4.326;2022-09-09T02:40:12;9.07;;;1.73;;
17794;SDS011;9021;50.882;4.326;2022-09-09T02:42:41;10.00;;;1.95;;
17794;SDS011;9021;50.882;4.326;2022-09-09T02:45:08;5.13;;;1.73;;
17794;SDS011;9021;50.882;4.326;2022-09-09T02:47:37;8.98;;;1.85;;
17794;SDS011;9021;50.882;4.326;2022-09-09T02:50:25;9.32;;;1.65;;
17794;SDS011;9021;50.882;4.326;2022-09-09T02:58:28;8.45;;;1.60;;
17794;SDS011;9021;50.882;4.326;2022-09-09T03:00:54;9.98;;;1.75;;
17794;SDS011;9021;50.882;4.326;2022-09-09T03:03:22;5.60;;;1.50;;
17794;SDS011;9021;50.882;4.326;2022-09-09T03:05:48;4.18;;;1.58;;
17794;SDS011;9021;50.882;4.326;2022-09-09T03:08:14;7.80;;;1.35;;
17794;SDS011;9021;50.882;4.326;2022-09-09T03:10:40;8.68;;;2.05;;
17794;SDS011;9021;50.882;4.326;2022-09-09T03:13:06;5.10;;;1.48;;
17794;SDS011;9021;50.882;4.326;2022-09-09T03:15:33;7.60;;;1.70;;
17794;SDS011;9021;50.882;4.326;2022-09-09T03:20:25;9.82;;;1.58;;
17794;SDS011;9021;50.882;4.326;2022-09-09T03:22:53;10.52;;;2.10;;
17794;SDS011;9021;50.882;4.326;2022-09-09T03:25:19;5.88;;;1.40;;
17794;SDS011;9021;50.882;4.326;2022-09-09T03:27:45;10.30;;;1.88;;
17794;SDS011;9021;50.882;4.326;2022-09-09T03:30:11;10.52;;;1.50;;
17794;SDS011;9021;50.882;4.326;2022-09-09T03:32:37;10.95;;;1.55;;
17794;SDS011;9021;50.882;4.326;2022-09-09T03:35:03;5.57;;;1.67;;
17794;SDS011;9021;50.882;4.326;2022-09-09T03:39:54;7.97;;;1.90;;
17794;SDS011;9021;50.882;4.326;2022-09-09T03:42:20;8.05;;;1.60;;
17794;SDS011;9021;50.882;4.326;2022-09-09T03:44:47;5.22;;;1.50;;
17794;SDS011;9021;50.882;4.326;2022-09-09T03:47:19;8.95;;;1.73;;
17794;SDS011;9021;50.882;4.326;2022-09-09T03:49:46;7.68;;;1.55;;
17794;SDS011;9021;50.882;4.326;2022-09-09T03:52:13;10.30;;;2.15;;
17794;SDS011;9021;50.882;4.326;2022-09-09T03:54:40;8.52;;;1.65;;
17794;SDS011;9021;50.882;4.326;2022-09-09T03:57:07;9.43;;;1.65;;
17794;SDS011;9021;50.882;4.326;2022-09-09T03:59:36;6.32;;;1.55;;
17794;SDS011;9021;50.882;4.326;2022-09-09T04:02:02;7.10;;;1.63;;
17794;SDS011;9021;50.882;4.326;2022-09-09T04:06:53;8.88;;;1.88;;
17794;SDS011;9021;50.882;4.326;2022-09-09T04:09:19;8.13;;;1.52;;
17794;SDS011;9021;50.882;4.326;2022-09-09T04:11:45;10.65;;;1.73;;
17794;SDS011;9021;50.882;4.326;2022-09-09T04:14:11;6.70;;;1.45;;
17794;SDS011;9021;50.882;4.326;2022-09-09T04:16:37;8.88;;;2.03;;
17794;SDS011;9021;50.882;4.326;2022-09-09T04:19:03;7.60;;;1.58;;
17794;SDS011;9021;50.882;4.326;2022-09-09T04:21:30;11.02;;;2.00;;
17794;SDS011;9021;50.882;4.326;2022-09-09T04:23:56;10.88;;;1.90;;
17794;SDS011;9021;50.882;4.326;2022-09-09T04:26:22;9.18;;;1.70;;
17794;SDS011;9021;50.882;4.326;2022-09-09T04:31:18;9.50;;;1.90;;
17794;SDS011;9021;50.882;4.326;2022-09-09T04:33:46;9.52;;;2.17;;
17794;SDS011;9021;50.882;4.326;2022-09-09T04:36:12;9.60;;;2.45;;
17794;SDS011;9021;50.882;4.326;2022-09-09T04:38:38;7.05;;;1.48;;
17794;SDS011;9021;50.882;4.326;2022-09-09T04:43:30;18.77;;;2.17;;
17794;SDS011;9021;50.882;4.326;2022-09-09T04:45:56;8.23;;;1.77;;
17794;SDS011;9021;50.882;4.326;2022-09-09T04:48:22;10.98;;;2.00;;
17794;SDS011;9021;50.882;4.326;2022-09-09T04:51:20;12.15;;;2.10;;
17794;SDS011;9021;50.882;4.326;2022-09-09T04:53:40;10.10;;;2.10;;
17794;SDS011;9021;50.882;4.326;2022-09-09T04:56:06;9.65;;;2.13;;
17794;SDS011;9021;50.882;4.326;2022-09-09T04:58:35;10.98;;;2.03;;
17794;SDS011;9021;50.882;4.326;2022-09-09T05:01:02;9.32;;;2.78;;
17794;SDS011;9021;50.882;4.326;2022-09-09T05:03:34;11.25;;;2.08;;
17794;SDS011;9021;50.882;4.326;2022-09-09T05:06:04;8.10;;;2.00;;
17794;SDS011;9021;50.882;4.326;2022-09-09T05:08:31;13.40;;;2.45;;
17794;SDS011;9021;50.882;4.326;2022-09-09T05:10:57;13.07;;;2.70;;
17794;SDS011;9021;50.882;4.326;2022-09-09T05:13:24;10.43;;;2.08;;
17794;SDS011;9021;50.882;4.326;2022-09-09T05:15:51;12.15;;;2.30;;
17794;SDS011;9021;50.882;4.326;2022-09-09T05:18:18;11.32;;;2.20;;
17794;SDS011;9021;50.882;4.326;2022-09-09T05:20:43;10.02;;;2.25;;
17794;SDS011;9021;50.882;4.326;2022-09-09T05:23:09;11.80;;;2.33;;
17794;SDS011;9021;50.882;4.326;2022-09-09T05:25:38;8.48;;;1.92;;
17794;SDS011;9021;50.882;4.326;2022-09-09T05:28:05;12.57;;;2.50;;
17794;SDS011;9021;50.882;4.326;2022-09-09T05:30:32;8.85;;;2.30;;
17794;SDS011;9021;50.882;4.326;2022-09-09T05:32:58;11.45;;;2.20;;
17794;SDS011;9021;50.882;4.326;2022-09-09T05:35:24;12.57;;;2.78;;
17794;SDS011;9021;50.882;4.326;2022-09-09T05:37:50;8.55;;;2.05;;
17794;SDS011;9021;50.882;4.326;2022-09-09T05:40:15;6.57;;;1.73;;
17794;SDS011;9021;50.882;4.326;2022-09-09T05:42:41;9.90;;;1.90;;
17794;SDS011;9021;50.882;4.326;2022-09-09T05:45:07;10.43;;;2.70;;
17794;SDS011;9021;50.882;4.326;2022-09-09T05:47:34;10.52;;;2.10;;
17794;SDS011;9021;50.882;4.326;2022-09-09T05:50:00;8.80;;;2.33;;
17794;SDS011;9021;50.882;4.326;2022-09-09T05:52:26;8.68;;;2.17;;
17794;SDS011;9021;50.882;4.326;2022-09-09T05:54:52;11.32;;;2.63;;
17794;SDS011;9021;50.882;4.326;2022-09-09T05:57:20;8.88;;;2.10;;
17794;SDS011;9021;50.882;4.326;2022-09-09T05:59:45;8.57;;;1.92;;
17794;SDS011;9021;50.882;4.326;2022-09-09T06:02:11;11.07;;;2.63;;
17794;SDS011;9021;50.882;4.326;2022-09-09T06:04:38;7.00;;;2.00;;
17794;SDS011;9021;50.882;4.326;2022-09-09T06:07:04;10.88;;;2.95;;
17794;SDS011;9021;50.882;4.326;2022-09-09T06:09:30;14.27;;;2.15;;
17794;SDS011;9021;50.882;4.326;2022-09-09T06:11:55;14.20;;;1.95;;
17794;SDS011;9021;50.882;4.326;2022-09-09T06:14:23;15.23;;;2.80;;
17794;SDS011;9021;50.882;4.326;2022-09-09T06:16:50;11.43;;;2.13;;
17794;SDS011;9021;50.882;4.326;2022-09-09T06:19:16;7.20;;;1.73;;
17794;SDS011;9021;50.882;4.326;2022-09-09T06:21:42;7.43;;;1.77;;
17794;SDS011;9021;50.882;4.326;2022-09-09T06:24:09;16.65;;;1.90;;
17794;SDS011;9021;50.882;4.326;2022-09-09T06:26:36;11.85;;;1.60;;
17794;SDS011;9021;50.882;4.326;2022-09-09T06:29:06;8.57;;;2.20;;
17794;SDS011;9021;50.882;4.326;2022-09-09T06:31:33;8.93;;;1.75;;
17794;SDS011;9021;50.882;4.326;2022-09-09T06:34:00;12.57;;;2.17;;
17794;SDS011;9021;50.882;4.326;2022-09-09T06:36:27;9.93;;;2.08;;
17794;SDS011;9021;50.882;4.326;2022-09-09T06:38:55;7.38;;;1.65;;
17794;SDS011;9021;50.882;4.326;2022-09-09T06:41:22;9.50;;;2.03;;
17794;SDS011;9021;50.882;4.326;2022-09-09T06:43:49;9.65;;;2.13;;
17794;SDS011;9021;50.882;4.326;2022-09-09T06:46:15;9.73;;;1.90;;
17794;SDS011;9021;50.882;4.326;2022-09-09T06:48:43;7.50;;;1.70;;
17794;SDS011;9021;50.882;4.326;2022-09-09T06:51:11;11.90;;;2.03;;
17794;SDS011;9021;50.882;4.326;2022-09-09T06:53:42;9.93;;;1.85;;
17794;SDS011;9021;50.882;4.326;2022-09-09T06:58:35;8.05;;;1.48;;
17794;SDS011;9021;50.882;4.326;2022-09-09T07:01:09;11.55;;;2.03;;
17794;SDS011;9021;50.882;4.326;2022-09-09T07:03:37;9.05;;;2.10;;
17794;SDS011;9021;50.882;4.326;2022-09-09T07:06:03;11.75;;;2.10;;
17794;SDS011;9021;50.882;4.326;2022-09-09T07:08:30;8.98;;;2.13;;
17794;SDS011;9021;50.882;4.326;2022-09-09T07:11:03;9.05;;;1.70;;
17794;SDS011;9021;50.882;4.326;2022-09-09T07:13:30;10.43;;;1.70;;
17794;SDS011;9021;50.882;4.326;2022-09-09T07:16:03;7.70;;;1.90;;
17794;SDS011;9021;50.882;4.326;2022-09-09T07:18:32;9.05;;;1.63;;
17794;SDS011;9021;50.882;4.326;2022-09-09T07:20:59;9.65;;;1.92;;
17794;SDS011;9021;50.882;4.326;2022-09-09T07:23:26;11.77;;;1.63;;
17794;SDS011;9021;50.882;4.326;2022-09-09T07:25:51;6.70;;;1.95;;
17794;SDS011;9021;50.882;4.326;2022-09-09T07:28:18;9.32;;;1.70;;
17794;SDS011;9021;50.882;4.326;2022-09-09T07:30:52;9.63;;;1.48;;
17794;SDS011;9021;50.882;4.326;2022-09-09T07:33:22;10.45;;;1.70;;
17794;SDS011;9021;50.882;4.326;2022-09-09T07:35:48;6.18;;;1.13;;
17794;SDS011;9021;50.882;4.326;2022-09-09T07:38:14;7.20;;;1.55;;
17794;SDS011;9021;50.882;4.326;2022-09-09T07:40:40;13.43;;;2.28;;
17794;SDS011;9021;50.882;4.326;2022-09-09T07:43:06;8.73;;;2.00;;
17794;SDS011;9021;50.882;4.326;2022-09-09T07:45:33;7.93;;;2.38;;
17794;SDS011;9021;50.882;4.326;2022-09-09T07:47:59;6.50;;;1.55;;
17794;SDS011;9021;50.882;4.326;2022-09-09T07:52:51;9.32;;;1.90;;
17794;SDS011;9021;50.882;4.326;2022-09-09T07:55:18;9.35;;;1.95;;
17794;SDS011;9021;50.882;4.326;2022-09-09T07:57:44;7.80;;;1.70;;
17794;SDS011;9021;50.882;4.326;2022-09-09T08:00:10;7.13;;;1.90;;
17794;SDS011;9021;50.882;4.326;2022-09-09T08:02:36;9.95;;;1.63;;
17794;SDS011;9021;50.882;4.326;2022-09-09T08:05:02;8.30;;;1.58;;
17794;SDS011;9021;50.882;4.326;2022-09-09T08:07:28;9.90;;;2.17;;
17794;SDS011;9021;50.882;4.326;2022-09-09T08:09:54;9.45;;;1.85;;
17794;SDS011;9021;50.882;4.326;2022-09-09T08:12:20;6.13;;;1.75;;
17794;SDS011;9021;50.882;4.326;2022-09-09T08:14:46;12.88;;;2.38;;
17794;SDS011;9021;50.882;4.326;2022-09-09T08:19:38;9.73;;;1.83;;
17794;SDS011;9021;50.882;4.326;2022-09-09T08:22:03;11.10;;;2.10;;
17794;SDS011;9021;50.882;4.326;2022-09-09T08:24:29;7.25;;;2.00;;
17794;SDS011;9021;50.882;4.326;2022-09-09T08:26:55;10.20;;;2.25;;
17794;SDS011;9021;50.882;4.326;2022-09-09T08:29:21;9.15;;;2.15;;
17794;SDS011;9021;50.882;4.326;2022-09-09T08:31:51;8.80;;;1.75;;
17794;SDS011;9021;50.882;4.326;2022-09-09T08:34:19;9.85;;;1.55;;
17794;SDS011;9021;50.882;4.326;2022-09-09T08:36:47;13.35;;;2.05;;
17794;SDS011;9021;50.882;4.326;2022-09-09T08:39:15;5.85;;;1.50;;
17794;SDS011;9021;50.882;4.326;2022-09-09T08:58:12;7.32;;;2.08;;
17794;SDS011;9021;50.882;4.326;2022-09-09T09:00:42;13.85;;;2.25;;
17794;SDS011;9021;50.882;4.326;2022-09-09T09:03:18;9.93;;;1.98;;
17794;SDS011;9021;50.882;4.326;2022-09-09T09:08:40;8.25;;;1.73;;
17794;SDS011;9021;50.882;4.326;2022-09-09T09:11:16;8.77;;;2.20;;
17794;SDS011;9021;50.882;4.326;2022-09-09T09:13:51;11.48;;;1.95;;
17794;SDS011;9021;50.882;4.326;2022-09-09T09:16:30;9.57;;;1.63;;
17794;SDS011;9021;50.882;4.326;2022-09-09T09:19:08;9.73;;;2.03;;
17794;SDS011;9021;50.882;4.326;2022-09-09T09:21:40;7.00;;;1.70;;
17794;SDS011;9021;50.882;4.326;2022-09-09T09:26:43;9.70;;;2.20;;
17794;SDS011;9021;50.882;4.326;2022-09-09T09:29:10;10.75;;;2.03;;
17794;SDS011;9021;50.882;4.326;2022-09-09T09:31:41;6.78;;;1.70;;
17794;SDS011;9021;50.882;4.326;2022-09-09T09:34:16;6.93;;;1.80;;
17794;SDS011;9021;50.882;4.326;2022-09-09T09:36:46;5.60;;;1.60;;
17794;SDS011;9021;50.882;4.326;2022-09-09T09:39:25;7.50;;;2.00;;
17794;SDS011;9021;50.882;4.326;2022-09-09T09:42:22;5.75;;;1.80;;
17794;SDS011;9021;50.882;4.326;2022-09-09T09:44:48;8.00;;;1.80;;
17794;SDS011;9021;50.882;4.326;2022-09-09T09:47:21;6.40;;;1.77;;
17794;SDS011;9021;50.882;4.326;2022-09-09T09:49:58;8.50;;;1.92;;
17794;SDS011;9021;50.882;4.326;2022-09-09T09:54:52;7.30;;;1.55;;
17794;SDS011;9021;50.882;4.326;2022-09-09T09:57:22;7.88;;;1.70;;
17794;SDS011;9021;50.882;4.326;2022-09-09T10:00:00;5.80;;;1.80;;
17794;SDS011;9021;50.882;4.326;2022-09-09T10:02:37;6.38;;;1.80;;
17794;SDS011;9021;50.882;4.326;2022-09-09T10:05:44;9.07;;;1.63;;
17794;SDS011;9021;50.882;4.326;2022-09-09T10:08:11;5.30;;;1.60;;
17794;SDS011;9021;50.882;4.326;2022-09-09T10:16:06;9.05;;;1.52;;
17794;SDS011;9021;50.882;4.326;2022-09-09T10:21:43;6.43;;;1.25;;
17794;SDS011;9021;50.882;4.326;2022-09-09T10:27:19;5.55;;;1.20;;
17794;SDS011;9021;50.882;4.326;2022-09-09T10:30:02;5.85;;;1.17;;
17794;SDS011;9021;50.882;4.326;2022-09-09T10:32:48;5.43;;;1.27;;
17794;SDS011;9021;50.882;4.326;2022-09-09T10:38:40;6.63;;;1.35;;
17794;SDS011;9021;50.882;4.326;2022-09-09T10:59:57;6.22;;;1.48;;
17794;SDS011;9021;50.882;4.326;2022-09-09T11:02:29;6.13;;;1.40;;
17794;SDS011;9021;50.882;4.326;2022-09-09T11:05:01;6.47;;;1.90;;
17794;SDS011;9021;50.882;4.326;2022-09-09T11:10:23;7.00;;;2.20;;
17794;SDS011;9021;50.882;4.326;2022-09-09T11:12:59;4.93;;;1.40;;
17794;SDS011;9021;50.882;4.326;2022-09-09T11:15:40;7.00;;;1.63;;
17794;SDS011;9021;50.882;4.326;2022-09-09T11:18:12;7.18;;;1.15;;
17794;SDS011;9021;50.882;4.326;2022-09-09T11:20:44;6.65;;;1.35;;
17794;SDS011;9021;50.882;4.326;2022-09-09T11:23:17;5.65;;;1.30;;
17794;SDS011;9021;50.882;4.326;2022-09-09T11:25:48;6.68;;;1.67;;
17794;SDS011;9021;50.882;4.326;2022-09-09T11:31:17;4.70;;;1.10;;
17794;SDS011;9021;50.882;4.326;2022-09-09T11:33:55;5.25;;;1.10;;
17794;SDS011;9021;50.882;4.326;2022-09-09T11:36:45;7.72;;;1.08;;
17794;SDS011;9021;50.882;4.326;2022-09-09T11:39:44;5.07;;;1.10;;
17794;SDS011;9021;50.882;4.326;2022-09-09T11:42:34;6.35;;;1.50;;
17794;SDS011;9021;50.882;4.326;2022-09-09T11:45:10;5.13;;;1.27;;
17794;SDS011;9021;50.882;4.326;2022-09-09T11:47:59;7.47;;;1.27;;
17794;SDS011;9021;50.882;4.326;2022-09-09T11:53:02;6.45;;;1.00;;
17794;SDS011;9021;50.882;4.326;2022-09-09T11:55:42;8.20;;;1.30;;
17794;SDS011;9021;50.882;4.326;2022-09-09T12:00:40;6.57;;;1.90;;
17794;SDS011;9021;50.882;4.326;2022-09-09T12:05:59;6.20;;;1.58;;
17794;SDS011;9021;50.882;4.326;2022-09-09T12:08:34;4.43;;;0.93;;
17794;SDS011;9021;50.882;4.326;2022-09-09T12:11:02;5.35;;;1.30;;
17794;SDS011;9021;50.882;4.326;2022-09-09T12:13:30;6.63;;;1.33;;
17794;SDS011;9021;50.882;4.326;2022-09-09T12:18:24;4.07;;;1.27;;
17794;SDS011;9021;50.882;4.326;2022-09-09T12:21:16;7.95;;;1.50;;
17794;SDS011;9021;50.882;4.326;2022-09-09T12:23:55;5.38;;;1.50;;
17794;SDS011;9021;50.882;4.326;2022-09-09T12:26:41;11.50;;;5.72;;
17794;SDS011;9021;50.882;4.326;2022-09-09T12:29:18;7.05;;;2.20;;
17794;SDS011;9021;50.882;4.326;2022-09-09T12:32:12;3.80;;;1.35;;
17794;SDS011;9021;50.882;4.326;2022-09-09T12:34:47;4.28;;;1.10;;
17794;SDS011;9021;50.882;4.326;2022-09-09T12:43:20;3.03;;;1.05;;
17794;SDS011;9021;50.882;4.326;2022-09-09T12:45:47;4.70;;;1.33;;
17794;SDS011;9021;50.882;4.326;2022-09-09T12:48:16;4.63;;;1.00;;
17794;SDS011;9021;50.882;4.326;2022-09-09T12:50:46;4.50;;;1.00;;
17794;SDS011;9021;50.882;4.326;2022-09-09T12:55:51;6.00;;;1.27;;
17794;SDS011;9021;50.882;4.326;2022-09-09T12:58:20;3.42;;;1.20;;
17794;SDS011;9021;50.882;4.326;2022-09-09T13:00:50;4.43;;;0.70;;
17794;SDS011;9021;50.882;4.326;2022-09-09T13:03:18;3.58;;;0.75;;
17794;SDS011;9021;50.882;4.326;2022-09-09T13:05:46;3.22;;;1.00;;
17794;SDS011;9021;50.882;4.326;2022-09-09T13:08:12;3.35;;;1.00;;
17794;SDS011;9021;50.882;4.326;2022-09-09T13:13:35;2.55;;;0.90;;
17794;SDS011;9021;50.882;4.326;2022-09-09T13:16:03;2.55;;;0.73;;
17794;SDS011;9021;50.882;4.326;2022-09-09T13:18:33;2.72;;;1.05;;
17794;SDS011;9021;50.882;4.326;2022-09-09T13:21:00;3.60;;;0.90;;
17794;SDS011;9021;50.882;4.326;2022-09-09T13:23:33;3.35;;;0.95;;
17794;SDS011;9021;50.882;4.326;2022-09-09T13:26:01;4.32;;;0.95;;
17794;SDS011;9021;50.882;4.326;2022-09-09T13:28:29;3.65;;;0.93;;
17794;SDS011;9021;50.882;4.326;2022-09-09T13:31:03;2.30;;;0.82;;
17794;SDS011;9021;50.882;4.326;2022-09-09T13:33:38;2.22;;;0.73;;
17794;SDS011;9021;50.882;4.326;2022-09-09T13:36:05;3.78;;;1.27;;
17794;SDS011;9021;50.882;4.326;2022-09-09T13:38:37;3.55;;;0.85;;
17794;SDS011;9021;50.882;4.326;2022-09-09T13:41:36;4.53;;;0.82;;
17794;SDS011;9021;50.882;4.326;2022-09-09T13:44:14;4.53;;;0.98;;
17794;SDS011;9021;50.882;4.326;2022-09-09T13:46:46;4.97;;;1.20;;
17794;SDS011;9021;50.882;4.326;2022-09-09T13:51:40;4.03;;;0.93;;
17794;SDS011;9021;50.882;4.326;2022-09-09T13:54:12;3.92;;;0.80;;
17794;SDS011;9021;50.882;4.326;2022-09-09T13:56:39;3.22;;;1.00;;
17794;SDS011;9021;50.882;4.326;2022-09-09T13:59:06;4.20;;;0.80;;
17794;SDS011;9021;50.882;4.326;2022-09-09T14:01:36;2.08;;;0.75;;
17794;SDS011;9021;50.882;4.326;2022-09-09T14:04:02;4.35;;;1.15;;
17794;SDS011;9021;50.882;4.326;2022-09-09T14:08:54;4.25;;;0.93;;
17794;SDS011;9021;50.882;4.326;2022-09-09T14:11:20;6.88;;;0.90;;
17794;SDS011;9021;50.882;4.326;2022-09-09T14:13:47;3.03;;;1.00;;
17794;SDS011;9021;50.882;4.326;2022-09-09T14:16:15;5.85;;;1.30;;
17794;SDS011;9021;50.882;4.326;2022-09-09T14:18:44;2.45;;;1.23;;
17794;SDS011;9021;50.882;4.326;2022-09-09T14:21:10;4.45;;;0.90;;
17794;SDS011;9021;50.882;4.326;2022-09-09T14:23:37;3.88;;;0.98;;
17794;SDS011;9021;50.882;4.326;2022-09-09T14:26:03;3.10;;;1.05;;
17794;SDS011;9021;50.882;4.326;2022-09-09T14:28:29;4.30;;;1.02;;
17794;SDS011;9021;50.882;4.326;2022-09-09T14:30:58;5.35;;;1.25;;
17794;SDS011;9021;50.882;4.326;2022-09-09T14:33:24;5.38;;;1.20;;
17794;SDS011;9021;50.882;4.326;2022-09-09T14:35:55;5.90;;;1.10;;
17794;SDS011;9021;50.882;4.326;2022-09-09T14:38:24;5.22;;;1.15;;
17794;SDS011;9021;50.882;4.326;2022-09-09T14:40:50;4.93;;;1.00;;
17794;SDS011;9021;50.882;4.326;2022-09-09T14:43:16;2.08;;;1.08;;
17794;SDS011;9021;50.882;4.326;2022-09-09T14:45:41;5.60;;;1.10;;
17794;SDS011;9021;50.882;4.326;2022-09-09T14:48:08;3.78;;;0.82;;
17794;SDS011;9021;50.882;4.326;2022-09-09T14:50:34;2.97;;;0.90;;
17794;SDS011;9021;50.882;4.326;2022-09-09T14:53:01;3.72;;;0.90;;
17794;SDS011;9021;50.882;4.326;2022-09-09T14:55:27;4.57;;;1.10;;
17794;SDS011;9021;50.882;4.326;2022-09-09T14:57:54;3.17;;;1.05;;
17794;SDS011;9021;50.882;4.326;2022-09-09T15:00:19;2.97;;;0.80;;
17794;SDS011;9021;50.882;4.326;2022-09-09T15:02:45;3.80;;;1.50;;
17794;SDS011;9021;50.882;4.326;2022-09-09T15:05:11;3.38;;;1.27;;
17794;SDS011;9021;50.882;4.326;2022-09-09T15:07:36;3.42;;;0.88;;
17794;SDS011;9021;50.882;4.326;2022-09-09T15:10:03;4.13;;;0.90;;
17794;SDS011;9021;50.882;4.326;2022-09-09T15:12:29;4.93;;;0.88;;
17794;SDS011;9021;50.882;4.326;2022-09-09T15:14:54;5.35;;;1.00;;
17794;SDS011;9021;50.882;4.326;2022-09-09T15:17:21;4.72;;;1.10;;
17794;SDS011;9021;50.882;4.326;2022-09-09T15:19:46;3.47;;;1.02;;
17794;SDS011;9021;50.882;4.326;2022-09-09T15:22:12;2.60;;;0.90;;
17794;SDS011;9021;50.882;4.326;2022-09-09T15:24:38;7.15;;;1.25;;
17794;SDS011;9021;50.882;4.326;2022-09-09T15:27:03;5.25;;;0.95;;
17794;SDS011;9021;50.882;4.326;2022-09-09T15:29:29;5.57;;;1.10;;
17794;SDS011;9021;50.882;4.326;2022-09-09T15:31:55;5.15;;;0.90;;
17794;SDS011;9021;50.882;4.326;2022-09-09T15:34:21;4.20;;;1.00;;
17794;SDS011;9021;50.882;4.326;2022-09-09T15:39:13;3.03;;;1.10;;
17794;SDS011;9021;50.882;4.326;2022-09-09T15:41:41;3.60;;;0.85;;
17794;SDS011;9021;50.882;4.326;2022-09-09T15:44:08;6.45;;;1.15;;
17794;SDS011;9021;50.882;4.326;2022-09-09T15:46:38;5.15;;;1.00;;
17794;SDS011;9021;50.882;4.326;2022-09-09T15:51:39;3.72;;;1.10;;
17794;SDS011;9021;50.882;4.326;2022-09-09T15:54:09;3.08;;;0.80;;
17794;SDS011;9021;50.882;4.326;2022-09-09T15:56:37;3.75;;;1.20;;
17794;SDS011;9021;50.882;4.326;2022-09-09T15:59:02;2.83;;;0.82;;
17794;SDS011;9021;50.882;4.326;2022-09-09T16:01:28;3.50;;;0.98;;
17794;SDS011;9021;50.882;4.326;2022-09-09T16:03:56;2.90;;;0.90;;
17794;SDS011;9021;50.882;4.326;2022-09-09T16:06:23;3.13;;;0.98;;
17794;SDS011;9021;50.882;4.326;2022-09-09T16:08:50;3.90;;;0.88;;
17794;SDS011;9021;50.882;4.326;2022-09-09T16:11:24;4.20;;;1.23;;
17794;SDS011;9021;50.882;4.326;2022-09-09T16:13:52;3.42;;;1.30;;
17794;SDS011;9021;50.882;4.326;2022-09-09T16:16:20;9.43;;;1.08;;
17794;SDS011;9021;50.882;4.326;2022-09-09T16:18:53;4.45;;;1.20;;
17794;SDS011;9021;50.882;4.326;2022-09-09T16:21:21;3.33;;;1.00;;
17794;SDS011;9021;50.882;4.326;2022-09-09T16:23:49;2.08;;;0.70;;
17794;SDS011;9021;50.882;4.326;2022-09-09T16:26:16;1.90;;;0.82;;
17794;SDS011;9021;50.882;4.326;2022-09-09T16:28:42;2.65;;;0.70;;
17794;SDS011;9021;50.882;4.326;2022-09-09T16:33:36;3.25;;;0.85;;
17794;SDS011;9021;50.882;4.326;2022-09-09T16:36:12;2.38;;;0.90;;
17794;SDS011;9021;50.882;4.326;2022-09-09T16:38:40;5.10;;;0.93;;
17794;SDS011;9021;50.882;4.326;2022-09-09T16:41:08;7.18;;;0.90;;
17794;SDS011;9021;50.882;4.326;2022-09-09T16:43:35;3.35;;;1.48;;
17794;SDS011;9021;50.882;4.326;2022-09-09T16:46:02;6.25;;;1.02;;
17794;SDS011;9021;50.882;4.326;2022-09-09T16:48:32;3.38;;;0.70;;
17794;SDS011;9021;50.882;4.326;2022-09-09T16:51:02;2.63;;;0.60;;
17794;SDS011;9021;50.882;4.326;2022-09-09T16:53:31;1.98;;;0.52;;
17794;SDS011;9021;50.882;4.326;2022-09-09T16:55:57;2.50;;;0.95;;
17794;SDS011;9021;50.882;4.326;2022-09-09T16:58:23;2.97;;;0.60;;
17794;SDS011;9021;50.882;4.326;2022-09-09T17:00:49;3.03;;;0.70;;
17794;SDS011;9021;50.882;4.326;2022-09-09T17:03:16;2.05;;;0.57;;
17794;SDS011;9021;50.882;4.326;2022-09-09T17:05:42;5.82;;;1.05;;
17794;SDS011;9021;50.882;4.326;2022-09-09T17:08:08;4.47;;;0.70;;
17794;SDS011;9021;50.882;4.326;2022-09-09T17:10:34;3.38;;;1.10;;
17794;SDS011;9021;50.882;4.326;2022-09-09T17:13:04;2.33;;;0.85;;
17794;SDS011;9021;50.882;4.326;2022-09-09T17:15:30;5.60;;;1.08;;
17794;SDS011;9021;50.882;4.326;2022-09-09T17:17:55;2.20;;;1.00;;
17794;SDS011;9021;50.882;4.326;2022-09-09T17:20:21;1.85;;;0.90;;
17794;SDS011;9021;50.882;4.326;2022-09-09T17:22:47;5.57;;;1.25;;
17794;SDS011;9021;50.882;4.326;2022-09-09T17:25:13;3.13;;;0.90;;
17794;SDS011;9021;50.882;4.326;2022-09-09T17:27:39;6.72;;;1.40;;
17794;SDS011;9021;50.882;4.326;2022-09-09T17:30:05;3.40;;;1.08;;
17794;SDS011;9021;50.882;4.326;2022-09-09T17:34:56;3.50;;;1.17;;
17794;SDS011;9021;50.882;4.326;2022-09-09T17:37:22;5.68;;;1.02;;
17794;SDS011;9021;50.882;4.326;2022-09-09T17:39:48;5.43;;;1.00;;
17794;SDS011;9021;50.882;4.326;2022-09-09T17:42:14;6.10;;;1.25;;
17794;SDS011;9021;50.882;4.326;2022-09-09T17:44:40;9.02;;;0.90;;
17794;SDS011;9021;50.882;4.326;2022-09-09T17:47:06;3.75;;;0.88;;
17794;SDS011;9021;50.882;4.326;2022-09-09T17:49:32;5.78;;;1.08;;
17794;SDS011;9021;50.882;4.326;2022-09-09T17:51:58;8.50;;;1.10;;
17794;SDS011;9021;50.882;4.326;2022-09-09T17:54:24;6.50;;;1.30;;
17794;SDS011;9021;50.882;4.326;2022-09-09T17:56:49;4.72;;;0.90;;
17794;SDS011;9021;50.882;4.326;2022-09-09T17:59:16;5.82;;;1.20;;
17794;SDS011;9021;50.882;4.326;2022-09-09T18:01:43;6.68;;;1.05;;
17794;SDS011;9021;50.882;4.326;2022-09-09T18:04:11;7.28;;;1.65;;